createdAt,value
2017-09-14T05:50:14.948Z,1.77
2017-09-14T05:52:42.531Z,1.70
2017-09-14T05:55:11.350Z,1.50
2017-09-14T05:57:39.693Z,1.97
2017-09-14T06:00:07.264Z,1.60
2017-09-14T06:02:35.991Z,1.80
2017-09-14T06:05:04.339Z,1.90
2017-09-14T06:07:31.929Z,1.80
2017-09-14T06:10:01.326Z,1.50
2017-09-14T06:12:30.714Z,1.70
2017-09-14T06:14:58.559Z,1.67
2017-09-14T06:17:26.113Z,1.70
2017-09-14T06:19:54.569Z,1.80
2017-09-14T06:22:22.927Z,1.97
2017-09-14T06:24:50.795Z,1.80
2017-09-14T06:27:18.361Z,1.63
2017-09-14T06:29:45.963Z,1.90
2017-09-14T06:32:13.862Z,1.80
2017-09-14T06:34:41.439Z,1.73
2017-09-14T06:37:08.998Z,2.10
2017-09-14T06:39:36.610Z,1.50
2017-09-14T06:42:04.927Z,1.60
2017-09-14T06:44:32.456Z,1.83
2017-09-14T06:47:00.855Z,1.93
2017-09-14T06:49:29.175Z,1.50
2017-09-14T06:51:56.696Z,1.70
2017-09-14T06:54:25.013Z,1.80
2017-09-14T06:56:52.606Z,1.90
2017-09-14T06:59:20.866Z,1.90
2017-09-14T07:01:51.672Z,2.30
2017-09-14T07:04:20.194Z,1.83
2017-09-14T07:06:47.804Z,2.03
2017-09-14T07:09:17.165Z,1.90
2017-09-14T07:11:44.775Z,2.00
2017-09-14T07:14:13.118Z,2.03
2017-09-14T07:16:41.055Z,2.20
2017-09-14T07:19:08.644Z,2.00
2017-09-14T07:21:38.146Z,2.00
2017-09-14T07:24:06.355Z,2.30
2017-09-14T07:26:34.125Z,2.40
2017-09-14T07:29:02.168Z,1.80
2017-09-14T07:31:29.998Z,2.10
2017-09-14T07:33:58.703Z,1.80
2017-09-14T07:36:27.178Z,2.07
2017-09-14T07:38:56.413Z,1.87
2017-09-14T07:41:25.149Z,2.43
2017-09-14T07:43:54.825Z,1.97
2017-09-14T07:46:23.050Z,1.77
2017-09-14T07:48:51.776Z,1.87
2017-09-14T07:51:19.503Z,2.17
2017-09-14T07:53:47.297Z,2.20
2017-09-14T07:56:15.290Z,2.17
2017-09-14T07:58:43.211Z,2.37
2017-09-14T08:01:11.863Z,2.30
2017-09-14T08:03:41.841Z,2.30
2017-09-14T08:06:10.313Z,2.17
2017-09-14T08:08:37.854Z,1.90
2017-09-14T08:11:05.524Z,2.10
2017-09-14T08:13:33.667Z,2.00
2017-09-14T08:16:02.267Z,2.20
2017-09-14T08:18:30.697Z,2.27
2017-09-14T08:20:58.257Z,2.30
2017-09-14T08:23:25.868Z,2.20
2017-09-14T08:25:53.441Z,2.17
2017-09-14T08:28:20.984Z,2.20
2017-09-14T08:30:49.323Z,2.30
2017-09-14T08:33:16.924Z,2.10
2017-09-14T08:35:45.270Z,2.10
2017-09-14T08:38:13.210Z,1.63
2017-09-14T08:40:40.789Z,2.00
2017-09-14T08:43:08.634Z,1.87
2017-09-14T08:45:36.244Z,1.80
2017-09-14T08:48:03.793Z,2.57
2017-09-14T08:50:31.429Z,1.90
2017-09-14T08:52:59.039Z,2.40
2017-09-14T08:55:26.569Z,1.47
2017-09-14T08:57:54.899Z,1.57
2017-09-14T09:00:22.437Z,1.10
2017-09-14T09:02:49.999Z,1.20
2017-09-14T09:05:17.593Z,1.20
2017-09-14T09:07:45.137Z,1.30
2017-09-14T09:10:12.674Z,1.23
2017-09-14T09:12:40.221Z,1.20
2017-09-14T09:15:07.919Z,0.90
2017-09-14T09:17:35.487Z,1.10
2017-09-14T09:20:03.083Z,0.90
2017-09-14T09:22:30.656Z,1.10
2017-09-14T09:24:58.196Z,0.93
2017-09-14T09:27:25.730Z,1.00
2017-09-14T09:29:53.534Z,1.00
2017-09-14T09:32:21.105Z,0.90
2017-09-14T09:34:48.674Z,0.70
2017-09-14T09:37:16.262Z,0.90
2017-09-14T09:39:43.813Z,0.90
2017-09-14T09:42:14.324Z,0.97
2017-09-14T09:44:42.236Z,0.90
2017-09-14T09:47:10.567Z,0.90
2017-09-14T09:49:38.104Z,1.00
2017-09-14T09:52:05.683Z,0.97
2017-09-14T09:54:33.265Z,0.90
2017-09-14T09:57:01.075Z,1.10
2017-09-14T09:59:29.430Z,1.10
2017-09-14T10:01:56.994Z,0.90
2017-09-14T10:04:24.525Z,1.10
2017-09-14T10:06:52.135Z,1.00
2017-09-14T10:09:19.686Z,1.00
2017-09-14T10:11:47.261Z,0.90
2017-09-14T10:14:14.790Z,1.10
2017-09-14T10:16:42.332Z,0.93
2017-09-14T10:19:09.879Z,1.00
2017-09-14T10:21:38.197Z,1.23
2017-09-14T10:24:06.757Z,1.10
2017-09-14T10:26:35.064Z,0.90
2017-09-14T10:29:02.628Z,0.90
2017-09-14T10:31:30.154Z,0.80
2017-09-14T10:33:57.719Z,0.90
2017-09-14T10:36:25.261Z,0.70
2017-09-14T10:38:52.835Z,0.90
2017-09-14T10:41:20.464Z,0.70
2017-09-14T10:43:48.036Z,0.77
2017-09-14T10:46:15.577Z,0.90
2017-09-14T10:48:43.113Z,0.90
2017-09-14T10:51:11.452Z,0.80
2017-09-14T10:53:38.999Z,0.70
2017-09-14T10:56:06.960Z,1.33
2017-09-14T10:58:34.497Z,0.90
2017-09-14T11:01:02.821Z,0.80
2017-09-14T11:03:30.362Z,1.00
2017-09-14T11:05:57.910Z,0.90
2017-09-14T11:08:26.217Z,1.37
2017-09-14T11:10:53.944Z,0.90
2017-09-14T11:13:21.498Z,0.90
2017-09-14T11:15:49.320Z,0.90
2017-09-14T11:18:16.836Z,0.90
2017-09-14T11:20:44.390Z,0.90
2017-09-14T11:23:11.974Z,0.80
2017-09-14T11:25:39.643Z,0.93
2017-09-14T11:28:07.204Z,0.80
2017-09-14T11:30:34.731Z,0.80
2017-09-14T11:33:02.266Z,0.80
2017-09-14T11:35:29.821Z,0.70
2017-09-14T11:37:58.116Z,0.80
2017-09-14T11:40:25.664Z,0.80
2017-09-14T11:42:53.959Z,0.80
2017-09-14T11:45:21.514Z,0.80
2017-09-14T11:47:49.808Z,0.80
2017-09-14T11:50:17.375Z,0.80
2017-09-14T11:52:45.677Z,0.60
2017-09-14T11:55:13.666Z,0.70
2017-09-14T11:57:41.222Z,0.60
2017-09-14T12:00:08.743Z,0.80
2017-09-14T12:02:38.065Z,3.80
2017-09-14T12:05:05.607Z,0.67
2017-09-14T12:07:33.889Z,0.53
2017-09-14T12:10:02.231Z,0.60
2017-09-14T12:12:29.799Z,0.70
2017-09-14T12:14:57.313Z,0.70
2017-09-14T12:17:25.648Z,0.73
2017-09-14T12:19:53.155Z,0.70
2017-09-14T12:22:21.467Z,0.60
2017-09-14T12:24:48.986Z,0.70
2017-09-14T12:27:17.277Z,0.73
2017-09-14T12:29:45.609Z,0.73
2017-09-14T12:32:13.132Z,0.80
2017-09-14T12:34:40.715Z,0.70
2017-09-14T12:37:08.250Z,0.80
2017-09-14T12:39:36.587Z,1.30
2017-09-14T12:42:04.184Z,1.10
2017-09-14T12:44:32.537Z,0.90
2017-09-14T12:47:00.056Z,0.90
2017-09-14T12:49:27.624Z,1.10
2017-09-14T12:51:55.179Z,1.10
2017-09-14T12:54:23.485Z,2.50
2017-09-14T12:56:52.056Z,1.07
2017-09-14T12:59:19.658Z,0.77
2017-09-14T13:01:48.218Z,0.87
2017-09-14T13:04:16.535Z,0.70
2017-09-14T13:06:44.051Z,0.80
2017-09-14T13:09:13.351Z,0.80
2017-09-14T13:11:41.685Z,0.80
2017-09-14T13:14:09.369Z,0.73
2017-09-14T13:16:36.885Z,0.70
2017-09-14T13:19:05.435Z,0.70
2017-09-14T13:21:33.744Z,0.80
2017-09-14T13:24:01.289Z,0.80
2017-09-14T13:26:29.593Z,0.70
2017-09-14T13:28:57.324Z,0.90
2017-09-14T13:31:25.042Z,1.10
2017-09-14T13:33:52.610Z,0.83
2017-09-14T13:36:20.173Z,0.70
2017-09-14T13:38:47.697Z,0.80
2017-09-14T13:41:16.056Z,0.90
2017-09-14T13:43:43.585Z,0.97
2017-09-14T13:46:11.129Z,0.90
2017-09-14T13:48:38.673Z,0.83
2017-09-14T13:51:06.993Z,0.93
2017-09-14T13:53:34.528Z,0.90
2017-09-14T13:56:02.826Z,0.90
2017-09-14T13:58:30.846Z,0.80
2017-09-14T14:00:58.481Z,0.80
2017-09-14T14:03:27.030Z,0.77
2017-09-14T14:05:55.370Z,0.80
2017-09-14T14:08:22.929Z,0.70
2017-09-14T14:10:50.465Z,0.80
2017-09-14T14:13:17.971Z,0.70
2017-09-14T14:15:45.516Z,0.80
2017-09-14T14:18:14.051Z,1.10
2017-09-14T14:20:42.343Z,0.80
2017-09-14T14:23:10.670Z,1.00
2017-09-14T14:25:38.236Z,0.90
2017-09-14T14:28:05.767Z,0.90
2017-09-14T14:30:33.587Z,1.00
2017-09-14T14:33:01.123Z,1.30
2017-09-14T14:35:28.651Z,0.87
2017-09-14T14:37:56.213Z,0.97
2017-09-14T14:40:24.500Z,1.53
2017-09-14T14:42:52.788Z,1.00
2017-09-14T14:45:20.350Z,1.30
2017-09-14T14:47:48.089Z,1.10
2017-09-14T14:50:16.664Z,1.00
2017-09-14T14:52:44.200Z,1.00
2017-09-14T14:55:11.752Z,0.80
2017-09-14T14:57:39.309Z,1.10
2017-09-14T15:00:06.849Z,1.20
2017-09-14T15:02:35.202Z,1.10
2017-09-14T15:05:02.755Z,1.00
2017-09-14T15:07:30.348Z,1.20
2017-09-14T15:09:57.919Z,1.30
2017-09-14T15:12:25.486Z,1.20
2017-09-14T15:14:53.814Z,1.40
2017-09-14T15:17:22.360Z,1.40
2017-09-14T15:19:50.685Z,1.47
2017-09-14T15:22:18.224Z,1.90
2017-09-14T15:24:45.804Z,1.80
2017-09-14T15:27:13.551Z,1.73
2017-09-14T15:29:41.843Z,1.93
2017-09-14T15:32:09.396Z,2.10
2017-09-14T15:34:36.998Z,1.90
2017-09-14T15:37:04.786Z,1.97
2017-09-14T15:39:37.931Z,2.07
2017-09-14T15:42:05.541Z,2.07
2017-09-14T15:44:38.795Z,2.70
2017-09-14T15:47:06.342Z,1.63
2017-09-14T15:49:40.319Z,2.00
2017-09-14T15:52:07.874Z,1.80
2017-09-14T15:54:35.421Z,1.90
2017-09-14T15:57:02.969Z,1.43
2017-09-14T15:59:30.521Z,2.00
2017-09-14T16:01:58.066Z,1.60
2017-09-14T16:04:26.759Z,1.80
2017-09-14T16:06:54.334Z,1.90
2017-09-14T16:09:22.669Z,1.90
2017-09-14T16:11:50.259Z,2.37
2017-09-14T16:14:18.096Z,1.80
2017-09-14T16:16:45.670Z,2.80
2017-09-14T16:19:13.260Z,1.53
2017-09-14T16:21:40.846Z,1.60
2017-09-14T16:24:09.178Z,1.70
2017-09-14T16:26:36.738Z,1.70
2017-09-14T16:29:04.299Z,1.70
2017-09-14T16:31:31.865Z,1.93
2017-09-14T16:33:59.629Z,1.47
2017-09-14T16:36:29.297Z,1.90
2017-09-14T16:38:57.973Z,1.50
2017-09-14T16:41:26.618Z,1.60
2017-09-14T16:43:54.552Z,1.50
2017-09-14T16:46:22.563Z,1.63
2017-09-14T16:48:50.141Z,1.63
2017-09-14T16:51:20.096Z,1.50
2017-09-14T16:53:48.775Z,1.33
2017-09-14T16:56:18.281Z,1.50
2017-09-14T16:58:46.164Z,1.50
2017-09-14T17:01:14.783Z,1.50
2017-09-14T17:03:42.689Z,1.50
2017-09-14T17:06:10.511Z,1.50
2017-09-14T17:08:38.397Z,1.70
2017-09-14T17:11:08.948Z,1.47
2017-09-14T17:13:36.745Z,1.33
2017-09-14T17:16:04.823Z,1.40
2017-09-14T17:18:32.480Z,1.30
2017-09-14T17:21:00.057Z,1.40
2017-09-14T17:23:27.627Z,2.20
2017-09-14T17:25:56.221Z,1.40
2017-09-14T17:28:23.779Z,1.30
2017-09-14T17:30:51.329Z,1.50
2017-09-14T17:33:18.832Z,1.40
2017-09-14T17:35:47.160Z,1.60
2017-09-14T17:38:14.729Z,2.00
2017-09-14T17:40:42.294Z,1.40
2017-09-14T17:43:10.089Z,1.67
2017-09-14T17:45:37.841Z,1.90
2017-09-14T17:48:05.450Z,1.77
2017-09-14T17:50:33.791Z,1.57
2017-09-14T17:53:01.344Z,1.50
2017-09-14T17:55:28.998Z,1.40
2017-09-14T17:57:56.861Z,1.60
2017-09-14T18:00:24.434Z,1.80
2017-09-14T18:02:52.091Z,2.40
2017-09-14T18:05:19.842Z,2.03
2017-09-14T18:07:47.510Z,2.10
2017-09-14T18:10:15.831Z,3.00
2017-09-14T18:12:43.489Z,1.63
2017-09-14T18:15:11.017Z,1.80
2017-09-14T18:17:39.343Z,1.60
2017-09-14T18:20:07.980Z,1.33
2017-09-14T18:22:36.313Z,2.00
2017-09-14T18:25:03.910Z,1.80
2017-09-14T18:27:31.454Z,1.40
2017-09-14T18:29:58.992Z,1.30
2017-09-14T18:32:26.656Z,1.60
2017-09-14T18:34:54.209Z,1.40
2017-09-14T18:37:22.692Z,1.50
2017-09-14T18:39:50.337Z,1.40
2017-09-14T18:42:17.954Z,1.60
2017-09-14T18:44:45.475Z,1.83
2017-09-14T18:47:13.821Z,1.50
2017-09-14T18:49:41.383Z,1.50
2017-09-14T18:52:09.020Z,1.63
2017-09-14T18:54:36.624Z,1.53
2017-09-14T18:57:04.194Z,1.40
2017-09-14T18:59:31.855Z,1.43
2017-09-14T19:01:59.538Z,1.30
2017-09-14T19:04:27.275Z,1.43
2017-09-14T19:06:54.843Z,1.63
2017-09-14T19:09:22.541Z,1.40
2017-09-14T19:11:50.140Z,1.43
2017-09-14T19:14:17.737Z,1.30
2017-09-14T19:16:46.073Z,1.20
2017-09-14T19:19:14.393Z,1.40
2017-09-14T19:21:41.938Z,1.40
2017-09-14T19:24:09.464Z,1.50
2017-09-14T19:26:37.794Z,1.43
2017-09-14T19:29:06.116Z,1.70
2017-09-14T19:31:33.729Z,1.87
2017-09-14T19:34:03.907Z,1.50
2017-09-14T19:36:31.491Z,1.50
2017-09-14T19:38:59.088Z,1.97
2017-09-14T19:41:26.640Z,1.30
2017-09-14T19:43:54.195Z,1.70
2017-09-14T19:46:22.561Z,1.50
2017-09-14T19:48:50.095Z,1.43
2017-09-14T19:51:17.651Z,1.60
2017-09-14T19:53:45.221Z,1.40
2017-09-14T19:56:12.773Z,1.45
2017-09-14T19:58:40.300Z,1.35
2017-09-14T20:01:07.875Z,1.58
2017-09-14T20:03:39.733Z,1.60
2017-09-14T20:06:07.387Z,1.50
2017-09-14T20:08:35.858Z,1.60
2017-09-14T20:11:03.470Z,1.73
2017-09-14T20:13:31.016Z,1.47
2017-09-14T20:15:59.029Z,2.07
2017-09-14T20:18:26.558Z,1.40
2017-09-14T20:20:54.132Z,1.40
2017-09-14T20:23:21.689Z,1.60
2017-09-14T20:25:49.601Z,1.67
2017-09-14T20:28:17.184Z,1.70
2017-09-14T20:30:45.219Z,1.60
2017-09-14T20:33:12.804Z,1.70
2017-09-14T20:35:40.393Z,1.50
2017-09-14T20:38:07.945Z,2.13
2017-09-14T20:40:35.513Z,2.17
2017-09-14T20:43:03.109Z,1.70
2017-09-14T20:45:36.052Z,1.70
2017-09-14T20:48:04.659Z,1.57
2017-09-14T20:50:32.213Z,2.07
2017-09-14T20:52:59.927Z,1.40
2017-09-14T20:55:29.394Z,1.60
2017-09-14T20:58:00.082Z,1.60
2017-09-14T21:00:28.619Z,1.50
2017-09-14T21:02:56.181Z,1.20
2017-09-14T21:05:23.710Z,1.40
2017-09-14T21:07:51.325Z,1.93
2017-09-14T21:10:21.170Z,1.60
2017-09-14T21:12:48.704Z,1.50
2017-09-14T21:15:16.294Z,1.17
2017-09-14T21:17:45.161Z,2.00
2017-09-14T21:20:12.735Z,1.60
2017-09-14T21:22:40.321Z,1.43
2017-09-14T21:25:08.616Z,1.50
2017-09-14T21:27:36.199Z,1.47
2017-09-14T21:30:03.790Z,1.60
2017-09-14T21:32:31.370Z,1.70
2017-09-14T21:34:59.883Z,1.53
2017-09-14T21:37:28.223Z,1.60
2017-09-14T21:39:55.781Z,1.50
2017-09-14T21:42:23.346Z,1.90
2017-09-14T21:44:50.922Z,1.40
2017-09-14T21:47:18.510Z,1.80
2017-09-14T21:49:46.804Z,1.80
2017-09-14T21:52:15.137Z,1.70
2017-09-14T21:54:42.748Z,1.60
2017-09-14T21:57:10.264Z,1.27
2017-09-14T21:59:37.851Z,1.70
2017-09-14T22:02:05.395Z,1.73
2017-09-14T22:04:32.952Z,1.50
2017-09-14T22:07:01.485Z,1.80
2017-09-14T22:09:29.816Z,1.87
2017-09-14T22:11:57.478Z,1.90
2017-09-14T22:14:25.277Z,2.10
2017-09-14T22:16:52.861Z,1.90
2017-09-14T22:19:20.456Z,2.10
2017-09-14T22:21:48.059Z,2.33
2017-09-14T22:24:15.958Z,1.43
2017-09-14T22:26:44.314Z,1.63
2017-09-14T22:29:11.875Z,2.20
2017-09-14T22:31:39.434Z,1.70
2017-09-14T22:34:07.000Z,2.03
2017-09-14T22:36:34.584Z,1.60
2017-09-14T22:39:02.119Z,2.10
2017-09-14T22:41:29.659Z,1.80
2017-09-14T22:43:58.248Z,2.00
2017-09-14T22:46:25.794Z,1.50
2017-09-14T22:48:54.148Z,1.80
2017-09-14T22:51:21.719Z,2.23
2017-09-14T22:53:49.272Z,1.70
2017-09-14T22:56:16.822Z,1.87
2017-09-14T22:58:44.411Z,1.70
2017-09-14T23:01:11.979Z,2.00
2017-09-14T23:03:39.527Z,1.60
2017-09-14T23:06:07.144Z,1.53
2017-09-14T23:08:35.482Z,2.40
2017-09-14T23:11:03.043Z,2.23
2017-09-14T23:13:30.605Z,1.80
2017-09-14T23:15:58.156Z,1.80
2017-09-14T23:18:25.692Z,1.83
2017-09-14T23:20:53.255Z,2.13
2017-09-14T23:23:20.811Z,2.30
2017-09-14T23:25:49.137Z,1.93
2017-09-14T23:28:16.719Z,2.10
2017-09-14T23:30:44.613Z,2.23
2017-09-14T23:33:13.254Z,2.10
2017-09-14T23:35:41.190Z,2.20
2017-09-14T23:38:09.490Z,2.20
2017-09-14T23:40:37.817Z,1.63
2017-09-14T23:43:05.389Z,2.17
2017-09-14T23:45:33.716Z,1.80
2017-09-14T23:48:01.261Z,2.00
2017-09-14T23:50:29.622Z,1.90
2017-09-14T23:52:58.188Z,2.30
2017-09-14T23:55:25.948Z,2.57
2017-09-14T23:57:53.873Z,1.63
